Huvudsida
METAR-TAF:

METAR-TAF

Flygplatser :

Verona-Villafrancas flygplats

Verona, Italien

latitud: 45-23N, longitud: 010-52E, höjd: 67 m

Aktuellt väderrapport

Denna rapport gjordes för 35 minuter sedan, klockan 09:20 UTC
Vind 5 kt från nordost, varierande mellan nord och ost
Temperatur 15°C
Fuktighet 88%
Tryck 1011 hPa
Sikt: 6000 m
Få moln på en höjd av 1500 ft
Brutna moln på en höjd av 3000 ft
Brutna moln på en höjd av 5000 ft
lätt regn

METAR: LIPX 270920Z 05005KT 010V090 6000 -RA FEW015 BKN030 BKN050 15/13 Q1011 RERA

Tid: 11:55 (09:55 UTC)

Väderprognos

Denna rapport gjordes för 1 timme och 55 minuter sedan, klockan 08:00 UTC
Prognos gäller från 27 kl. 09 UTC till 27 kl. 18 UTC
Vind 5 kt varierande vindriktning
Sikt: 4000 m
Brutna moln på en höjd av 1500 ft
Brutna moln på en höjd av 4000 ft
fuktdis
Temporärt
från 27 kl. 09 UTC till 27 kl. 18 UTC
regn

TAF: LIPX 270800Z 2709/2718 VRB05KT 4000 BR BKN015 BKN040 TEMPO 2709/2718 RA

Aktuella väderrapporter och prognoser från 4000 flygplatser (METAR- och TAF-rapporter).

De tillgängliga stationerna syns som gula och röda prickar på kartan.

För musen över prickarna för att se namnen på stationerna.

Klicka sedan för att få väderrapporter och prognoser.

För att ändra kartan: Klicka på de gröna knapparna med ett svart kors på för att zooma in; den gröna knappen med ett streck på för att zooma ut; eller på de gröna pilarna för angränsande kartor.


METAR-TAF: